Allegany Spring, Virginia
Current Conditions -  °F | °C
As of 11:35 PM on Wednesday 26 Nov 2014 (Local Time) from KBCB Reporting Station
Haze Haze  
Wind Chill: 34°   Ceiling: 7500
Heat Index: 34°   Visibility: 2mi
Dew Point: 34°   Wind: 0mph
Humidity: 100%   Direction: NA
Pressure: 29.98"   Gusts: NA
Location:  37.1336°N, 80.2545°W
Report Text: KBCB 270435Z AUTO 00000KT 2SM BR SCT036 BKN075 OVC100 01/01 A2998 RMK AO2
Loading
Personal Weather Stations






























Interactive Weather Map New forecast layout! Learn more

10-Day Weather Forecast

Advertisements
Track Severe Weather on mobile